Time;durP1;ratioP1;P1;durP2;ratioP2;P2;SDS_P1;SDS_P2;PMS_P1;PMS_P2;Temp;Humidity;BMP_temperature;BMP_pressure;BME280_temperature;BME280_humidity;BME280_pressure;Samples;Min_cycle;Max_cycle;Signal;HPM_P1;HPM_P2
2021/04/01 00:01:53;;;;;;;31.02;10.90;;;;;;;;;;5094424;28;20039;-65
2021/04/01 00:04:19;;;;;;;27.38;11.55;;;;;;;;;;5093984;28;20040;-65
2021/04/01 00:06:44;;;;;;;24.48;10.43;;;;;;;;;;5094081;28;20027;-65
2021/04/01 00:09:10;;;;;;;23.48;10.90;;;;;;;;;;5093706;28;20467;-65
2021/04/01 00:11:35;;;;;;;32.00;11.20;;;;;;;;;;5093879;28;20476;-65
2021/04/01 00:14:03;;;;;;;25.10;11.25;;;;;;;;;;5094001;28;20024;-65
2021/04/01 00:16:28;;;;;;;27.30;10.10;;;;;;;;;;5093877;28;20024;-65
2021/04/01 00:18:54;;;;;;;27.95;10.55;;;;;;;;;;5093480;28;20038;-66
2021/04/01 00:21:19;;;;;;;21.08;10.73;;;;;;;;;;5093670;28;20073;-67
2021/04/01 00:23:44;;;;;;;25.45;11.18;;;;;;;;;;5091935;28;20434;-67
2021/04/01 00:26:10;;;;;;;22.55;10.18;;;;;;;;;;5092750;28;20039;-68
2021/04/01 00:28:35;;;;;;;28.13;12.25;;;;;;;;;;5075355;28;20020;-67
2021/04/01 00:31:01;;;;;;;27.55;10.90;;;;;;;;;;5093393;28;20036;-67
2021/04/01 00:33:26;;;;;;;23.98;11.57;;;;;;;;;;5093423;28;20039;-67
2021/04/01 00:35:52;;;;;;;28.10;11.15;;;;;;;;;;5093591;28;20123;-65
2021/04/01 00:38:17;;;;;;;27.10;11.45;;;;;;;;;;5093451;28;20463;-67
2021/04/01 00:40:42;;;;;;;30.50;10.25;;;;;;;;;;5093463;28;20027;-68
2021/04/01 00:43:08;;;;;;;35.90;12.95;;;;;;;;;;5093446;28;20372;-67
2021/04/01 00:45:33;;;;;;;29.83;11.95;;;;;;;;;;5093458;28;20144;-68
2021/04/01 00:47:58;;;;;;;27.63;11.70;;;;;;;;;;5093005;28;20082;-68
2021/04/01 00:50:28;;;;;;;27.33;12.38;;;;;;;;;;5093327;28;20028;-65
2021/04/01 00:52:53;;;;;;;37.03;12.98;;;;;;;;;;5093523;28;20026;-65
2021/04/01 00:55:18;;;;;;;28.25;12.52;;;;;;;;;;5093565;28;20035;-65
2021/04/01 00:57:44;;;;;;;30.02;10.77;;;;;;;;;;5093362;28;20375;-65
2021/04/01 01:00:12;;;;;;;26.45;12.30;;;;;;;;;;5093243;28;20030;-67
2021/04/01 01:02:37;;;;;;;31.75;11.98;;;;;;;;;;5093277;28;20028;-68
2021/04/01 01:05:03;;;;;;;27.08;11.15;;;;;;;;;;5093101;28;20062;-68
2021/04/01 01:07:28;;;;;;;31.20;12.75;;;;;;;;;;5094838;28;20526;-68
2021/04/01 01:09:54;;;;;;;35.05;12.55;;;;;;;;;;5092322;28;20075;-67
2021/04/01 01:12:19;;;;;;;45.88;14.27;;;;;;;;;;5095005;28;20020;-68
2021/04/01 01:14:44;;;;;;;24.15;13.00;;;;;;;;;;5093866;28;20020;-67
2021/04/01 01:17:13;;;;;;;28.52;13.70;;;;;;;;;;5094472;28;20056;-67
2021/04/01 01:19:39;;;;;;;22.60;12.77;;;;;;;;;;5094077;28;20084;-68
2021/04/01 01:22:08;;;;;;;23.38;11.88;;;;;;;;;;5094526;28;20024;-67
2021/04/01 01:24:34;;;;;;;26.88;12.35;;;;;;;;;;5094388;28;20030;-67
2021/04/01 01:27:01;;;;;;;36.35;13.75;;;;;;;;;;5094291;28;20080;-67
2021/04/01 01:29:26;;;;;;;29.38;12.38;;;;;;;;;;5093759;28;20483;-67
2021/04/01 01:31:51;;;;;;;34.88;13.82;;;;;;;;;;5093951;28;20067;-68
2021/04/01 01:34:17;;;;;;;28.25;12.85;;;;;;;;;;5093888;28;20456;-67
2021/04/01 01:36:43;;;;;;;24.70;13.85;;;;;;;;;;5093987;28;20368;-67
2021/04/01 01:39:08;;;;;;;27.73;13.02;;;;;;;;;;5093542;28;20089;-68
2021/04/01 01:41:33;;;;;;;32.20;13.98;;;;;;;;;;5094214;28;20020;-67
2021/04/01 01:43:59;;;;;;;25.73;13.32;;;;;;;;;;5075721;28;20509;-67
2021/04/01 01:46:24;;;;;;;27.30;13.20;;;;;;;;;;5093779;28;20024;-68
2021/04/01 01:48:50;;;;;;;30.42;13.52;;;;;;;;;;5093675;28;20103;-67
2021/04/01 01:51:15;;;;;;;33.45;14.82;;;;;;;;;;5097389;28;20047;-67
2021/04/01 01:53:40;;;;;;;29.00;12.27;;;;;;;;;;5113966;28;20062;-68
2021/04/01 01:56:06;;;;;;;34.38;14.02;;;;;;;;;;5114831;28;20098;-67
2021/04/01 01:58:31;;;;;;;28.95;12.75;;;;;;;;;;5113815;28;20024;-67
2021/04/01 02:00:58;;;;;;;29.33;13.43;;;;;;;;;;5113331;28;20051;-67
2021/04/01 02:03:24;;;;;;;30.52;13.55;;;;;;;;;;5113561;28;20011;-67
2021/04/01 02:05:49;;;;;;;34.72;14.18;;;;;;;;;;5114088;28;20073;-68
2021/04/01 02:08:15;;;;;;;23.88;13.48;;;;;;;;;;5113471;28;20691;-68
2021/04/01 02:10:41;;;;;;;34.72;15.70;;;;;;;;;;5113705;28;20078;-67
2021/04/01 02:13:07;;;;;;;31.88;15.07;;;;;;;;;;5114345;28;20019;-67
2021/04/01 02:15:36;;;;;;;29.58;15.15;;;;;;;;;;5113541;28;20040;-68
2021/04/01 02:18:12;;;;;;;28.40;13.85;;;;;;;;;;5113360;28;20023;-68
2021/04/01 02:20:41;;;;;;;;;;;;;;;;;;5113702;28;20028;-67
2021/04/01 02:23:11;;;;;;;79.22;34.88;;;;;;;;;;5114101;28;19903;-67
2021/04/01 02:25:37;;;;;;;34.03;14.15;;;;;;;;;;5114010;28;20034;-68
2021/04/01 02:28:02;;;;;;;33.83;15.45;;;;;;;;;;5113455;28;20371;-67
2021/04/01 02:30:28;;;;;;;35.03;15.57;;;;;;;;;;5112990;28;20371;-68
2021/04/01 02:32:54;;;;;;;44.38;21.85;;;;;;;;;;5113360;28;20031;-67
2021/04/01 02:35:19;;;;;;;105.85;50.95;;;;;;;;;;5113090;28;20031;-68
2021/04/01 02:37:45;;;;;;;72.53;35.55;;;;;;;;;;5112927;28;20026;-68
2021/04/01 02:40:10;;;;;;;63.92;28.98;;;;;;;;;;5094548;28;20040;-68
2021/04/01 02:42:36;;;;;;;68.50;32.47;;;;;;;;;;5113632;28;20463;-67
2021/04/01 02:45:01;;;;;;;88.10;46.20;;;;;;;;;;5113051;28;20015;-67
2021/04/01 02:47:26;;;;;;;87.20;41.72;;;;;;;;;;5112968;28;20114;-67
2021/04/01 02:49:51;;;;;;;94.10;47.83;;;;;;;;;;5112790;28;20023;-67
2021/04/01 02:52:17;;;;;;;87.50;44.90;;;;;;;;;;5112877;28;20050;-68
2021/04/01 02:54:42;;;;;;;91.90;45.95;;;;;;;;;;5112772;28;20387;-68
2021/04/01 02:57:14;;;;;;;89.57;45.35;;;;;;;;;;5113519;28;20085;-67
2021/04/01 02:59:40;;;;;;;84.13;44.05;;;;;;;;;;5112728;28;20023;-67
2021/04/01 03:02:05;;;;;;;89.40;44.40;;;;;;;;;;5113090;28;20036;-68
2021/04/01 03:04:32;;;;;;;78.15;40.67;;;;;;;;;;5112557;28;20417;-67
2021/04/01 03:06:57;;;;;;;81.30;41.13;;;;;;;;;;5112718;28;20068;-68
2021/04/01 03:09:22;;;;;;;73.80;37.28;;;;;;;;;;5098040;28;20044;-67
2021/04/01 03:11:48;;;;;;;76.85;37.63;;;;;;;;;;5091941;28;20452;-67
2021/04/01 03:14:13;;;;;;;69.88;35.85;;;;;;;;;;5091929;28;20077;-68
2021/04/01 03:16:38;;;;;;;74.18;38.20;;;;;;;;;;5092269;28;20040;-67
2021/04/01 03:19:03;;;;;;;68.32;34.58;;;;;;;;;;5092318;28;20012;-67
2021/04/01 03:21:29;;;;;;;66.28;32.15;;;;;;;;;;5091870;28;20356;-67
2021/04/01 03:23:54;;;;;;;63.30;32.90;;;;;;;;;;5091813;28;20035;-68
2021/04/01 03:26:19;;;;;;;57.25;30.67;;;;;;;;;;5091949;28;20428;-68
2021/04/01 03:28:44;;;;;;;51.72;27.30;;;;;;;;;;5091435;28;20027;-68
2021/04/01 03:31:10;;;;;;;55.78;29.85;;;;;;;;;;5091093;28;20711;-67
2021/04/01 03:33:35;;;;;;;52.03;26.40;;;;;;;;;;5092330;28;20024;-67
2021/04/01 03:36:00;;;;;;;58.97;28.25;;;;;;;;;;5091459;28;20058;-67
2021/04/01 03:38:27;;;;;;;54.28;30.38;;;;;;;;;;5090955;28;20052;-67
2021/04/01 03:40:54;;;;;;;58.55;28.27;;;;;;;;;;5091333;28;20362;-68
2021/04/01 03:43:21;;;;;;;51.67;29.45;;;;;;;;;;5091591;28;20020;-67
2021/04/01 03:45:46;;;;;;;54.80;28.30;;;;;;;;;;5090875;28;20529;-67
2021/04/01 03:48:12;;;;;;;55.85;28.95;;;;;;;;;;5091193;28;20020;-68
2021/04/01 03:50:37;;;;;;;54.83;28.42;;;;;;;;;;5091589;28;20114;-68
2021/04/01 03:53:02;;;;;;;53.97;27.73;;;;;;;;;;5091408;28;20498;-67
2021/04/01 03:58:10;;;;;;;55.85;27.38;;;;;;;;;;5091114;28;20859;-67
2021/04/01 04:00:37;;;;;;;52.47;26.75;;;;;;;;;;5091493;28;20032;-67
2021/04/01 04:06:09;;;;;;;47.38;24.88;;;;;;;;;;5090909;28;20040;-67
2021/04/01 04:11:29;;;;;;;47.25;26.05;;;;;;;;;;5091231;28;20044;-67
2021/04/01 04:16:19;;;;;;;44.40;25.58;;;;;;;;;;5090931;28;20384;-68
2021/04/01 04:18:45;;;;;;;47.58;26.50;;;;;;;;;;5090745;28;20023;-67
2021/04/01 04:21:10;;;;;;;50.17;26.55;;;;;;;;;;5072771;28;20024;-68
2021/04/01 04:23:39;;;;;;;45.97;26.10;;;;;;;;;;5091582;28;20512;-68
2021/04/01 04:26:04;;;;;;;55.42;27.77;;;;;;;;;;5091688;28;20073;-67
2021/04/01 04:28:34;;;;;;;44.70;24.85;;;;;;;;;;5090753;28;20611;-68
2021/04/01 04:31:00;;;;;;;46.25;25.90;;;;;;;;;;5090052;28;20389;-67
2021/04/01 04:33:25;;;;;;;42.13;26.40;;;;;;;;;;5090647;28;20156;-67
2021/04/01 04:35:51;;;;;;;42.28;25.95;;;;;;;;;;5090698;28;20387;-67
2021/04/01 04:38:16;;;;;;;46.90;26.75;;;;;;;;;;5090460;28;20050;-67
2021/04/01 04:40:41;;;;;;;49.20;24.42;;;;;;;;;;5090488;28;20456;-67
2021/04/01 04:43:07;;;;;;;45.85;25.70;;;;;;;;;;5090705;28;20488;-68
2021/04/01 04:45:32;;;;;;;40.50;23.45;;;;;;;;;;5090428;28;20467;-67
2021/04/01 04:47:57;;;;;;;49.95;22.13;;;;;;;;;;5090212;28;20029;-67
2021/04/01 04:50:23;;;;;;;43.63;23.75;;;;;;;;;;5090205;28;20028;-68
2021/04/01 04:52:48;;;;;;;41.58;23.35;;;;;;;;;;5090385;28;20040;-67
2021/04/01 04:55:13;;;;;;;42.97;23.88;;;;;;;;;;5072346;28;20409;-68
2021/04/01 05:05:20;;;;;;;41.70;22.15;;;;;;;;;;5090037;28;20115;-68
2021/04/01 05:07:45;;;;;;;39.85;23.15;;;;;;;;;;5090301;28;20118;-68
2021/04/01 05:10:11;;;;;;;35.95;21.48;;;;;;;;;;5090090;28;20032;-67
2021/04/01 05:12:36;;;;;;;44.45;23.80;;;;;;;;;;5090849;28;20027;-67
2021/04/01 05:15:01;;;;;;;38.40;21.92;;;;;;;;;;5090079;28;20028;-67
2021/04/01 05:17:26;;;;;;;36.65;20.17;;;;;;;;;;5090378;28;20460;-67
2021/04/01 05:19:58;;;;;;;35.65;19.92;;;;;;;;;;5089806;28;20020;-67
2021/04/01 05:22:38;;;;;;;39.03;20.27;;;;;;;;;;5090147;28;20032;-67
2021/04/01 05:25:05;;;;;;;35.42;19.58;;;;;;;;;;5072036;28;20074;-67
2021/04/01 05:27:39;;;;;;;36.08;18.90;;;;;;;;;;5090011;28;20036;-67
2021/04/01 05:30:05;;;;;;;35.40;18.47;;;;;;;;;;5085261;28;20060;-68
2021/04/01 05:32:33;;;;;;;37.20;19.75;;;;;;;;;;5087910;28;20083;-67
2021/04/01 05:35:00;;;;;;;33.47;16.42;;;;;;;;;;5089663;28;20028;-67
2021/04/01 05:37:27;;;;;;;33.28;18.17;;;;;;;;;;5069514;28;20672;-67
2021/04/01 05:39:53;;;;;;;39.00;18.02;;;;;;;;;;5069611;28;20075;-67
2021/04/01 05:42:22;;;;;;;35.80;18.05;;;;;;;;;;5069584;28;20031;-67
2021/04/01 05:44:51;;;;;;;32.15;17.77;;;;;;;;;;5069767;28;20025;-67
2021/04/01 06:03:12;;;;;;;32.08;17.23;;;;;;;;;;5074509;28;20052;-67
2021/04/01 06:05:52;;;;;;;28.50;15.45;;;;;;;;;;5073104;28;20541;-67
2021/04/01 06:08:22;;;;;;;31.05;15.15;;;;;;;;;;5074157;28;20033;-68
2021/04/01 06:10:49;;;;;;;28.08;14.30;;;;;;;;;;5074173;28;20036;-68
2021/04/01 06:13:16;;;;;;;31.10;13.95;;;;;;;;;;5074073;28;20032;-68
2021/04/01 06:15:45;;;;;;;26.40;13.45;;;;;;;;;;5073977;28;20466;-67
2021/04/01 06:18:11;;;;;;;24.00;12.88;;;;;;;;;;5075069;28;20549;-67
2021/04/01 06:20:37;;;;;;;24.33;13.05;;;;;;;;;;5057690;28;20392;-67
2021/04/01 06:23:03;;;;;;;21.80;12.32;;;;;;;;;;5075976;28;20043;-65
2021/04/01 06:25:32;;;;;;;23.55;12.90;;;;;;;;;;5075728;28;20448;-65
2021/04/01 06:28:00;;;;;;;20.20;11.32;;;;;;;;;;5075452;28;20032;-65
2021/04/01 06:30:33;;;;;;;22.33;10.70;;;;;;;;;;5075513;28;20115;-65
2021/04/01 06:33:04;;;;;;;23.05;10.98;;;;;;;;;;5075719;28;20039;-65
2021/04/01 06:35:32;;;;;;;26.45;10.98;;;;;;;;;;5075475;28;20093;-65
2021/04/01 06:40:36;;;;;;;19.25;9.63;;;;;;;;;;5075444;28;20025;-65
2021/04/01 06:43:08;;;;;;;19.27;9.38;;;;;;;;;;5075501;28;20039;-65
2021/04/01 06:45:35;;;;;;;18.05;8.82;;;;;;;;;;5075339;28;20048;-65
2021/04/01 06:48:00;;;;;;;19.90;8.55;;;;;;;;;;5075473;28;20027;-65
2021/04/01 06:50:36;;;;;;;24.98;9.20;;;;;;;;;;5075171;28;20036;-65
2021/04/01 06:53:21;;;;;;;24.27;9.10;;;;;;;;;;5075259;28;20064;-65
2021/04/01 06:56:08;;;;;;;16.35;7.70;;;;;;;;;;5075131;28;20028;-65
2021/04/01 06:58:50;;;;;;;17.73;7.95;;;;;;;;;;5075307;28;20032;-65
2021/04/01 07:01:35;;;;;;;17.67;8.25;;;;;;;;;;5074993;28;20032;-65
2021/04/01 07:04:04;;;;;;;14.52;8.20;;;;;;;;;;5074538;28;20429;-65
2021/04/01 07:06:36;;;;;;;17.50;8.57;;;;;;;;;;5074530;28;20028;-65
2021/04/01 07:09:11;;;;;;;25.38;8.32;;;;;;;;;;5075005;28;20056;-65
2021/04/01 07:11:40;;;;;;;19.58;7.80;;;;;;;;;;5074809;28;20089;-65
2021/04/01 07:14:20;;;;;;;18.85;7.72;;;;;;;;;;5074779;28;20028;-65
2021/04/01 07:46:44;;;;;;;16.88;5.88;;;;;;;;;;5073872;28;20035;-68
2021/04/01 07:49:22;;;;;;;17.58;6.40;;;;;;;;;;5073837;28;20139;-67
2021/04/01 07:54:52;;;;;;;19.73;6.63;;;;;;;;;;5073625;28;20028;-67
2021/04/01 08:04:58;;;;;;;15.98;4.75;;;;;;;;;;5073646;28;20560;-65
2021/04/01 08:07:28;;;;;;;17.42;5.07;;;;;;;;;;5073595;28;20103;-68
2021/04/01 08:09:58;;;;;;;14.35;5.35;;;;;;;;;;5073294;28;20036;-67
2021/04/01 08:12:27;;;;;;;17.92;5.43;;;;;;;;;;5073878;28;20112;-67
2021/04/01 08:15:15;;;;;;;10.48;4.65;;;;;;;;;;5073474;28;20027;-67
2021/04/01 08:17:59;;;;;;;12.07;4.85;;;;;;;;;;5072469;28;20651;-68
2021/04/01 08:20:29;;;;;;;17.02;5.28;;;;;;;;;;5073496;28;20028;-68
2021/04/01 08:25:30;;;;;;;13.65;4.40;;;;;;;;;;5073736;28;20040;-65
2021/04/01 08:28:10;;;;;;;12.80;4.20;;;;;;;;;;5095214;28;20510;-67
2021/04/01 08:33:29;;;;;;;;;;;;;;;;;;5100299;28;20165;-67
2021/04/01 08:35:56;;;;;;;13.07;4.40;;;;;;;;;;5113306;28;19908;-67
2021/04/01 08:38:22;;;;;;;13.23;6.22;;;;;;;;;;5109816;28;20108;-67
2021/04/01 08:40:48;;;;;;;11.82;5.55;;;;;;;;;;5106265;28;20110;-68
2021/04/01 08:43:36;;;;;;;19.70;4.90;;;;;;;;;;5107183;28;20506;-67
2021/04/01 08:46:09;;;;;;;17.08;5.10;;;;;;;;;;5106476;28;20093;-67
2021/04/01 08:48:47;;;;;;;17.15;4.60;;;;;;;;;;5107237;28;20024;-67
2021/04/01 08:51:12;;;;;;;13.90;5.53;;;;;;;;;;5107039;28;20070;-67
2021/04/01 08:53:37;;;;;;;21.42;4.53;;;;;;;;;;5107549;28;20468;-68
2021/04/01 08:56:19;;;;;;;19.27;4.90;;;;;;;;;;5107651;28;20445;-67
2021/04/01 08:59:05;;;;;;;14.02;4.72;;;;;;;;;;5107022;28;20042;-67
2021/04/01 09:01:31;;;;;;;12.07;5.20;;;;;;;;;;5089235;28;20036;-67
2021/04/01 09:03:59;;;;;;;21.08;4.90;;;;;;;;;;5107727;28;20027;-67
2021/04/01 09:06:25;;;;;;;12.30;4.63;;;;;;;;;;5108152;28;20065;-67
2021/04/01 09:08:54;;;;;;;16.98;5.60;;;;;;;;;;5107702;28;20051;-67
2021/04/01 09:11:28;;;;;;;26.42;6.28;;;;;;;;;;5107119;28;20489;-67
2021/04/01 09:13:54;;;;;;;17.52;5.18;;;;;;;;;;5107892;28;20046;-67
2021/04/01 09:16:40;;;;;;;17.08;4.88;;;;;;;;;;5107473;28;20516;-67
2021/04/01 09:19:05;;;;;;;16.65;5.60;;;;;;;;;;5107980;28;20032;-68
2021/04/01 09:21:32;;;;;;;16.05;4.57;;;;;;;;;;5106965;28;20384;-68
2021/04/01 09:24:00;;;;;;;12.10;4.78;;;;;;;;;;5107691;28;20039;-67
2021/04/01 09:26:25;;;;;;;20.05;4.80;;;;;;;;;;5107600;28;20028;-67
2021/04/01 09:28:51;;;;;;;18.10;4.47;;;;;;;;;;5111131;28;20036;-67
2021/04/01 09:31:16;;;;;;;14.90;4.82;;;;;;;;;;5116324;28;20043;-67
2021/04/01 09:33:42;;;;;;;13.15;4.82;;;;;;;;;;5115575;28;20376;-67
2021/04/01 09:36:07;;;;;;;12.65;4.47;;;;;;;;;;5115678;28;20020;-67
2021/04/01 09:38:39;;;;;;;13.30;4.80;;;;;;;;;;5116645;28;20051;-67
2021/04/01 09:41:04;;;;;;;12.00;4.03;;;;;;;;;;5115811;28;20072;-67
2021/04/01 09:43:30;;;;;;;18.17;5.15;;;;;;;;;;5115519;28;20429;-67
2021/04/01 09:45:58;;;;;;;12.80;5.43;;;;;;;;;;5115180;28;20043;-67
2021/04/01 09:48:31;;;;;;;19.10;5.10;;;;;;;;;;5115903;28;20020;-67
2021/04/01 09:51:00;;;;;;;13.63;4.82;;;;;;;;;;5115822;28;20048;-67
2021/04/01 09:53:28;;;;;;;21.63;6.03;;;;;;;;;;5115944;28;20163;-67
2021/04/01 09:55:54;;;;;;;15.88;5.45;;;;;;;;;;5109501;28;20295;-67
2021/04/01 09:58:21;;;;;;;23.80;5.10;;;;;;;;;;5111789;28;20043;-67
2021/04/01 10:03:22;;;;;;;15.82;5.00;;;;;;;;;;5112310;28;20459;-67
2021/04/01 10:05:48;;;;;;;17.98;5.45;;;;;;;;;;5112259;28;20031;-67
2021/04/01 10:08:26;;;;;;;14.45;4.57;;;;;;;;;;5112486;28;20092;-67
2021/04/01 10:10:53;;;;;;;21.27;4.60;;;;;;;;;;5112004;28;20526;-67
2021/04/01 10:13:22;;;;;;;14.70;3.85;;;;;;;;;;5112264;28;20765;-67
2021/04/01 10:15:48;;;;;;;16.42;4.40;;;;;;;;;;5112190;28;20031;-67
2021/04/01 10:18:15;;;;;;;17.42;3.80;;;;;;;;;;5112240;28;20054;-68
2021/04/01 10:20:44;;;;;;;18.75;4.38;;;;;;;;;;5112669;28;20050;-67
2021/04/01 10:23:09;;;;;;;16.95;4.13;;;;;;;;;;5112281;28;20075;-67
2021/04/01 10:25:36;;;;;;;14.95;4.43;;;;;;;;;;5111360;28;20139;-67
2021/04/01 10:28:13;;;;;;;14.07;4.20;;;;;;;;;;5112436;28;20035;-67
2021/04/01 10:30:39;;;;;;;14.60;4.28;;;;;;;;;;5112033;28;20081;-67
2021/04/01 10:33:23;;;;;;;15.93;4.22;;;;;;;;;;5111636;28;20081;-68
2021/04/01 10:35:49;;;;;;;16.08;3.80;;;;;;;;;;5111384;28;20033;-67
2021/04/01 10:38:14;;;;;;;20.92;4.75;;;;;;;;;;5111696;28;20055;-67
2021/04/01 10:40:40;;;;;;;13.68;3.47;;;;;;;;;;5110511;28;20372;-67
2021/04/01 10:43:09;;;;;;;15.50;3.58;;;;;;;;;;5112219;28;20114;-68
2021/04/01 10:45:38;;;;;;;16.45;4.55;;;;;;;;;;5111568;28;20043;-67
2021/04/01 10:48:16;;;;;;;14.57;3.55;;;;;;;;;;5112028;28;20110;-67
2021/04/01 10:50:42;;;;;;;15.95;4.03;;;;;;;;;;5110935;28;20134;-67
2021/04/01 10:53:16;;;;;;;15.07;3.40;;;;;;;;;;5111303;28;20441;-68
2021/04/01 10:55:41;;;;;;;15.15;4.45;;;;;;;;;;5110959;28;20067;-68
2021/04/01 10:58:07;;;;;;;17.50;4.20;;;;;;;;;;5111784;28;20066;-67
2021/04/01 11:00:33;;;;;;;14.40;3.95;;;;;;;;;;5110913;28;20108;-68
2021/04/01 11:03:00;;;;;;;20.60;4.60;;;;;;;;;;5110613;28;20032;-67
2021/04/01 11:05:25;;;;;;;23.67;4.18;;;;;;;;;;5111356;28;20035;-67
2021/04/01 11:07:52;;;;;;;21.15;3.58;;;;;;;;;;5092671;28;20024;-67
2021/04/01 11:10:18;;;;;;;21.95;4.25;;;;;;;;;;5111205;28;20035;-67
2021/04/01 11:12:51;;;;;;;23.80;4.15;;;;;;;;;;5111276;28;20035;-68
2021/04/01 11:15:17;;;;;;;18.10;4.20;;;;;;;;;;5110612;28;20848;-67
2021/04/01 11:17:43;;;;;;;16.35;4.40;;;;;;;;;;5092930;28;20031;-67
2021/04/01 11:20:09;;;;;;;15.45;4.00;;;;;;;;;;5110917;28;20055;-67
2021/04/01 11:22:35;;;;;;;13.07;3.33;;;;;;;;;;5111207;28;20088;-67
2021/04/01 11:25:13;;;;;;;19.80;4.68;;;;;;;;;;5111254;28;20035;-68
2021/04/01 11:27:58;;;;;;;16.30;3.83;;;;;;;;;;5110369;28;20068;-67
2021/04/01 11:30:38;;;;;;;12.50;3.10;;;;;;;;;;5109465;28;20053;-68
2021/04/01 11:33:04;;;;;;;10.75;3.85;;;;;;;;;;5110781;28;20123;-68
2021/04/01 11:35:30;;;;;;;12.88;3.60;;;;;;;;;;5110279;28;20062;-68
2021/04/01 11:37:55;;;;;;;15.23;4.30;;;;;;;;;;5109213;28;20036;-67
2021/04/01 11:40:21;;;;;;;14.68;3.85;;;;;;;;;;5110667;28;20035;-68
2021/04/01 11:42:58;;;;;;;17.70;3.60;;;;;;;;;;5109078;28;20027;-67
2021/04/01 11:45:50;;;;;;;10.77;3.67;;;;;;;;;;5109244;28;20432;-67
2021/04/01 11:48:15;;;;;;;12.85;4.00;;;;;;;;;;5104420;28;20527;-68
2021/04/01 11:50:40;;;;;;;11.25;2.78;;;;;;;;;;5109526;28;20141;-68
2021/04/01 11:53:07;;;;;;;11.05;3.15;;;;;;;;;;5110302;28;20024;-68
2021/04/01 11:55:33;;;;;;;16.02;3.95;;;;;;;;;;5109952;28;20035;-68
2021/04/01 11:57:58;;;;;;;12.38;3.95;;;;;;;;;;5109924;28;20031;-68
2021/04/01 12:00:33;;;;;;;15.65;4.60;;;;;;;;;;5110582;28;20028;-68
2021/04/01 12:03:14;;;;;;;14.90;3.25;;;;;;;;;;5109987;28;20027;-68
2021/04/01 12:05:47;;;;;;;22.55;4.28;;;;;;;;;;5109671;28;20043;-67
2021/04/01 12:08:13;;;;;;;25.50;3.95;;;;;;;;;;5108547;28;20084;-68
2021/04/01 12:10:39;;;;;;;11.57;3.20;;;;;;;;;;5083395;28;20679;-67
2021/04/01 12:13:06;;;;;;;18.52;3.70;;;;;;;;;;5088828;28;20080;-68
2021/04/01 12:15:32;;;;;;;14.93;4.07;;;;;;;;;;5089435;28;20039;-68
2021/04/01 12:17:58;;;;;;;12.00;3.35;;;;;;;;;;5088596;28;20806;-68
2021/04/01 12:20:23;;;;;;;11.18;3.00;;;;;;;;;;5089700;28;20020;-68
2021/04/01 12:22:49;;;;;;;14.82;3.50;;;;;;;;;;5088855;28;20043;-68
2021/04/01 12:25:15;;;;;;;20.25;5.57;;;;;;;;;;5089424;28;20044;-68
2021/04/01 12:27:48;;;;;;;12.90;3.75;;;;;;;;;;5089134;28;20023;-68
2021/04/01 12:30:19;;;;;;;8.57;3.25;;;;;;;;;;5089254;28;20040;-67
2021/04/01 12:32:47;;;;;;;17.00;3.72;;;;;;;;;;5089128;28;20489;-68
2021/04/01 12:35:13;;;;;;;16.35;3.70;;;;;;;;;;5089617;28;20008;-68
2021/04/01 12:37:40;;;;;;;11.10;3.63;;;;;;;;;;5088798;28;20122;-68
2021/04/01 12:40:16;;;;;;;13.25;3.15;;;;;;;;;;5089295;28;20062;-67
2021/04/01 12:42:42;;;;;;;10.23;3.22;;;;;;;;;;5088634;28;20412;-68
2021/04/01 12:45:22;;;;;;;8.52;2.60;;;;;;;;;;5088991;28;20173;-67
2021/04/01 12:47:50;;;;;;;20.55;3.53;;;;;;;;;;5088184;28;20458;-68
2021/04/01 12:50:16;;;;;;;10.45;3.00;;;;;;;;;;5088403;28;20365;-68
2021/04/01 12:52:42;;;;;;;17.10;3.92;;;;;;;;;;5089276;28;20081;-68
2021/04/01 12:55:07;;;;;;;13.13;3.45;;;;;;;;;;5088522;28;20395;-68
2021/04/01 12:57:38;;;;;;;11.88;3.55;;;;;;;;;;5088590;28;20043;-68
2021/04/01 13:00:04;;;;;;;11.57;3.03;;;;;;;;;;5088688;28;20039;-68
2021/04/01 13:02:29;;;;;;;10.43;3.03;;;;;;;;;;5069770;28;20036;-68
2021/04/01 13:04:57;;;;;;;12.32;2.78;;;;;;;;;;5088681;28;20448;-67
2021/04/01 13:13:17;;;;;;;14.00;3.25;;;;;;;;;;5008584;28;20096;-68
2021/04/01 13:15:43;;;;;;;15.57;3.53;;;;;;;;;;5005886;28;20438;-68
2021/04/01 13:18:08;;;;;;;15.60;4.22;;;;;;;;;;5049492;28;20058;-68
2021/04/01 13:20:34;;;;;;;15.10;3.40;;;;;;;;;;5100059;28;20126;-68
2021/04/01 13:25:31;;;;;;;10.30;2.90;;;;;;;;;;5106003;28;20039;-67
2021/04/01 13:28:01;;;;;;;11.50;3.33;;;;;;;;;;5088718;28;20031;-68
2021/04/01 13:30:28;;;;;;;13.13;3.25;;;;;;;;;;5097008;28;20040;-68
2021/04/01 13:38:04;;;;;;;11.40;3.25;;;;;;;;;;5088664;28;20076;-68
2021/04/01 13:40:29;;;;;;;12.00;3.53;;;;;;;;;;5088814;28;20476;-68
2021/04/01 13:42:57;;;;;;;12.98;3.20;;;;;;;;;;5096806;28;20028;-68
2021/04/01 13:45:25;;;;;;;7.97;3.05;;;;;;;;;;5087458;28;20024;-68
2021/04/01 13:47:55;;;;;;;10.60;3.28;;;;;;;;;;5088444;28;20036;-68
2021/04/01 13:50:22;;;;;;;10.13;2.97;;;;;;;;;;5088316;28;20044;-67
2021/04/01 13:55:41;;;;;;;9.93;3.42;;;;;;;;;;5087593;28;20133;-67
2021/04/01 14:09:29;;;;;;;13.43;3.00;;;;;;;;;;5088219;28;20082;-67
2021/04/01 14:11:56;;;;;;;13.35;3.20;;;;;;;;;;5088233;28;20039;-68
2021/04/01 14:14:22;;;;;;;9.57;2.80;;;;;;;;;;5088704;28;20109;-67
2021/04/01 14:16:50;;;;;;;9.95;3.28;;;;;;;;;;5091049;28;20065;-68
2021/04/01 14:19:17;;;;;;;10.45;3.08;;;;;;;;;;5092180;28;20118;-67
2021/04/01 14:21:42;;;;;;;11.35;3.58;;;;;;;;;;5091188;28;20105;-67
2021/04/01 14:24:11;;;;;;;10.60;3.30;;;;;;;;;;5092328;28;20054;-67
2021/04/01 14:26:45;;;;;;;9.93;2.70;;;;;;;;;;5091455;28;20032;-67
2021/04/01 14:29:12;;;;;;;13.30;3.57;;;;;;;;;;5092107;28;20078;-68
2021/04/01 14:31:37;;;;;;;11.77;3.58;;;;;;;;;;5091185;28;20047;-67
2021/04/01 14:34:03;;;;;;;12.48;3.25;;;;;;;;;;5091611;28;20035;-67
2021/04/01 14:36:28;;;;;;;11.00;3.50;;;;;;;;;;5091374;28;20047;-67
2021/04/01 14:38:54;;;;;;;16.00;3.55;;;;;;;;;;5091787;28;20127;-68
2021/04/01 14:43:58;;;;;;;12.75;4.07;;;;;;;;;;5091226;28;20032;-67
2021/04/01 14:46:24;;;;;;;10.02;2.88;;;;;;;;;;5090354;28;20404;-68
2021/04/01 14:48:50;;;;;;;14.73;3.47;;;;;;;;;;5090555;28;20039;-67
2021/04/01 14:51:16;;;;;;;8.90;2.72;;;;;;;;;;5090554;28;20043;-68
2021/04/01 14:53:54;;;;;;;15.70;3.17;;;;;;;;;;5089900;28;20066;-67
2021/04/01 14:56:20;;;;;;;10.10;3.00;;;;;;;;;;5091091;28;20024;-67
2021/04/01 14:58:46;;;;;;;12.52;4.97;;;;;;;;;;5090449;28;20388;-67
2021/04/01 15:01:13;;;;;;;10.35;3.25;;;;;;;;;;5091349;28;20044;-68
2021/04/01 15:03:39;;;;;;;11.60;2.88;;;;;;;;;;5090153;28;20450;-67
2021/04/01 15:06:05;;;;;;;11.43;3.38;;;;;;;;;;5088187;28;20038;-68
2021/04/01 15:08:34;;;;;;;13.55;4.45;;;;;;;;;;5089307;28;20028;-67
2021/04/01 15:11:00;;;;;;;9.82;3.20;;;;;;;;;;5070197;28;20365;-67
2021/04/01 15:13:26;;;;;;;17.80;3.55;;;;;;;;;;5070913;28;20044;-67
2021/04/01 15:15:51;;;;;;;10.70;3.35;;;;;;;;;;5070599;28;20039;-68
2021/04/01 15:18:17;;;;;;;8.43;2.50;;;;;;;;;;5070514;28;20071;-67
2021/04/01 15:20:42;;;;;;;12.38;2.80;;;;;;;;;;5070668;28;20032;-67
2021/04/01 15:23:08;;;;;;;7.07;2.80;;;;;;;;;;5070367;28;20036;-67
2021/04/01 15:25:33;;;;;;;12.88;3.00;;;;;;;;;;5069189;28;20042;-67
2021/04/01 15:27:58;;;;;;;18.55;4.03;;;;;;;;;;5070495;28;20400;-67
2021/04/01 15:30:24;;;;;;;13.98;3.22;;;;;;;;;;5070263;28;20044;-67
2021/04/01 15:32:50;;;;;;;18.63;3.47;;;;;;;;;;5070378;28;20094;-67
2021/04/01 15:35:15;;;;;;;14.23;3.65;;;;;;;;;;5069951;28;20068;-67
2021/04/01 15:37:40;;;;;;;20.73;3.75;;;;;;;;;;5069990;28;20609;-68
2021/04/01 15:40:08;;;;;;;18.58;3.45;;;;;;;;;;5070110;28;20044;-67
2021/04/01 15:42:33;;;;;;;21.25;4.20;;;;;;;;;;5070339;28;20040;-67
2021/04/01 15:45:03;;;;;;;10.63;3.40;;;;;;;;;;5069574;28;20483;-67
2021/04/01 15:47:28;;;;;;;14.18;2.88;;;;;;;;;;5070436;28;20023;-67
2021/04/01 15:49:55;;;;;;;11.90;3.42;;;;;;;;;;5069045;28;20468;-68
2021/04/01 15:52:20;;;;;;;15.30;2.88;;;;;;;;;;5069977;28;20369;-67
2021/04/01 15:54:45;;;;;;;17.58;4.72;;;;;;;;;;5069658;28;20081;-67
2021/04/01 15:57:11;;;;;;;19.98;4.10;;;;;;;;;;5069737;28;20040;-67
2021/04/01 15:59:36;;;;;;;16.73;3.85;;;;;;;;;;5069197;28;20028;-67
2021/04/01 16:02:02;;;;;;;16.17;3.38;;;;;;;;;;5079737;28;20055;-67
2021/04/01 16:04:27;;;;;;;18.05;3.10;;;;;;;;;;5095826;28;20035;-67
2021/04/01 16:06:53;;;;;;;12.18;2.72;;;;;;;;;;5088982;28;20058;-67
2021/04/01 16:09:18;;;;;;;13.35;3.10;;;;;;;;;;5088718;28;20028;-67
2021/04/01 16:11:43;;;;;;;14.55;4.20;;;;;;;;;;5089110;28;20048;-67
2021/04/01 16:14:09;;;;;;;13.48;3.42;;;;;;;;;;5088992;28;20076;-67
2021/04/01 16:16:34;;;;;;;13.52;3.22;;;;;;;;;;5088846;28;20035;-67
2021/04/01 16:18:59;;;;;;;11.32;3.67;;;;;;;;;;5088857;28;20043;-67
2021/04/01 16:21:25;;;;;;;13.30;4.32;;;;;;;;;;5088639;28;20028;-67
2021/04/01 16:23:50;;;;;;;9.63;3.00;;;;;;;;;;5096006;28;20074;-67
2021/04/01 16:26:15;;;;;;;13.20;3.38;;;;;;;;;;5096469;28;20035;-67